createdAt,value
2016-04-19T00:00:00.902Z,720.14
2016-04-19T00:00:14.199Z,720.16
2016-04-19T00:00:27.495Z,720.2
2016-04-19T00:00:40.795Z,720.18
2016-04-19T00:00:54.092Z,720.07
2016-04-19T00:01:07.389Z,720.17
2016-04-19T00:01:20.686Z,720.13
2016-04-19T00:01:34.017Z,720.14
2016-04-19T00:01:47.298Z,720.19
2016-04-19T00:02:00.611Z,720.12
2016-04-19T00:02:13.908Z,720.23
2016-04-19T00:02:27.205Z,720.14
2016-04-19T00:02:40.503Z,720.22
2016-04-19T00:02:53.816Z,720.15
2016-04-19T00:03:07.144Z,720.11
2016-04-19T00:03:20.832Z,720.15
2016-04-19T00:03:34.147Z,720.17
2016-04-19T00:03:47.460Z,720.12
2016-04-19T00:04:00.741Z,720.19
2016-04-19T00:04:14.038Z,720.17
2016-04-19T00:04:27.350Z,720.07
2016-04-19T00:04:40.649Z,720.24
2016-04-19T00:04:53.962Z,720.05
2016-04-19T00:05:07.258Z,720.06
2016-04-19T00:05:20.540Z,720.06
2016-04-19T00:05:48.011Z,720.16
2016-04-19T00:06:01.340Z,720.2
2016-04-19T00:06:14.652Z,720.13
2016-04-19T00:06:27.949Z,720.2
2016-04-19T00:06:41.264Z,720.12
2016-04-19T00:06:54.764Z,720.28
2016-04-19T00:07:08.264Z,720.3
2016-04-19T00:07:21.561Z,720.15
2016-04-19T00:07:34.860Z,720.13
2016-04-19T00:07:48.157Z,720.19
2016-04-19T00:08:01.454Z,720.18
2016-04-19T00:08:14.782Z,720.12
2016-04-19T00:08:28.063Z,720.1
2016-04-19T00:08:41.567Z,720.21
2016-04-19T00:08:55.083Z,720.2
2016-04-19T00:09:08.380Z,720.1
2016-04-19T00:09:21.911Z,720.14
2016-04-19T00:09:35.210Z,720
2016-04-19T00:09:48.538Z,720.08
2016-04-19T00:10:01.835Z,720.17
2016-04-19T00:10:15.132Z,720.15
2016-04-19T00:10:28.663Z,720.11
2016-04-19T00:10:41.946Z,720.17
2016-04-19T00:10:55.259Z,720.15
2016-04-19T00:11:08.556Z,720.11
2016-04-19T00:11:21.899Z,720.22
2016-04-19T00:11:35.184Z,720.12
2016-04-19T00:11:48.496Z,720.19
2016-04-19T00:12:01.793Z,720.11
2016-04-19T00:12:15.090Z,720.12
2016-04-19T00:12:28.387Z,720.29
2016-04-19T00:12:41.702Z,720.26
2016-04-19T00:12:54.999Z,720.11
2016-04-19T00:13:08.296Z,720.06
2016-04-19T00:13:21.593Z,720.14
2016-04-19T00:13:34.893Z,720
2016-04-19T00:13:48.205Z,720.16
2016-04-19T00:14:01.487Z,720.05
2016-04-19T00:14:14.815Z,720.01
2016-04-19T00:14:28.112Z,720.1
2016-04-19T00:14:41.410Z,720.16
2016-04-19T00:14:55.332Z,720
2016-04-19T00:15:08.832Z,720.06
2016-04-19T00:15:22.114Z,720.1
2016-04-19T00:15:35.413Z,720.11
2016-04-19T00:15:48.726Z,720.1
2016-04-19T00:16:02.023Z,720.03
2016-04-19T00:16:15.320Z,720.11
2016-04-19T00:16:28.601Z,720.07
2016-04-19T00:16:42.087Z,720.09
2016-04-19T00:16:55.431Z,720.04
2016-04-19T00:17:08.712Z,720.07
2016-04-19T00:17:22.009Z,720.08
2016-04-19T00:17:35.310Z,720.03
2016-04-19T00:17:48.607Z,720.04
2016-04-19T00:18:16.060Z,720.15
2016-04-19T00:18:29.357Z,719.88
2016-04-19T00:18:42.656Z,719.79
2016-04-19T00:18:55.953Z,720.09
2016-04-19T00:19:09.250Z,720.11
2016-04-19T00:19:22.546Z,720.1
2016-04-19T00:19:35.861Z,720.05
2016-04-19T00:19:49.158Z,720.09
2016-04-19T00:20:02.439Z,719.95
2016-04-19T00:20:15.736Z,720.12
2016-04-19T00:20:29.033Z,720.05
2016-04-19T00:20:42.739Z,720
2016-04-19T00:20:56.051Z,720.08
2016-04-19T00:21:09.348Z,720.06
2016-04-19T00:21:36.846Z,719.97
2016-04-19T00:21:50.176Z,720.12
2016-04-19T00:22:03.504Z,720.09
2016-04-19T00:22:16.801Z,720.09
2016-04-19T00:22:30.113Z,720.1
2016-04-19T00:22:43.194Z,720.08
2016-04-19T00:22:56.772Z,720.1
2016-04-19T00:23:10.069Z,720.03
2016-04-19T00:23:23.350Z,719.96
2016-04-19T00:23:36.649Z,720
2016-04-19T00:23:49.962Z,719.96
2016-04-19T00:24:03.477Z,720
2016-04-19T00:24:19.993Z,720.03
2016-04-19T00:24:33.309Z,720.13
2016-04-19T00:24:46.605Z,720.06
2016-04-19T00:25:14.059Z,720.09
2016-04-19T00:25:27.371Z,720.07
2016-04-19T00:25:40.655Z,719.99
2016-04-19T00:25:53.952Z,719.96
2016-04-19T00:26:07.249Z,719.99
2016-04-19T00:26:20.733Z,719.96
2016-04-19T00:26:34.048Z,719.92
2016-04-19T00:26:47.360Z,719.91
2016-04-19T00:27:00.673Z,719.97
2016-04-19T00:27:13.970Z,719.98
2016-04-19T00:27:27.267Z,720.03
2016-04-19T00:27:40.552Z,720.04
2016-04-19T00:27:53.849Z,719.98
2016-04-19T00:28:07.146Z,719.94
2016-04-19T00:28:20.458Z,720.01
2016-04-19T00:28:33.757Z,720.05
2016-04-19T00:28:47.038Z,720.07
2016-04-19T00:29:00.335Z,719.97
2016-04-19T00:29:13.632Z,719.99
2016-04-19T00:29:26.929Z,719.87
2016-04-19T00:29:40.259Z,719.85
2016-04-19T00:29:53.540Z,720.03
2016-04-19T00:30:06.868Z,720
2016-04-19T00:30:20.150Z,719.89
2016-04-19T00:30:33.482Z,719.97
2016-04-19T00:30:46.779Z,719.94
2016-04-19T00:30:59.919Z,719.98
2016-04-19T00:31:13.435Z,719.98
2016-04-19T00:31:26.732Z,719.92
2016-04-19T00:31:40.031Z,719.92
2016-04-19T00:31:53.343Z,719.97
2016-04-19T00:32:06.640Z,719.92
2016-04-19T00:32:20.140Z,719.85
2016-04-19T00:32:33.659Z,720.05
2016-04-19T00:32:46.956Z,719.95
2016-04-19T00:33:03.284Z,719.97
2016-04-19T00:33:17.002Z,719.97
2016-04-19T00:33:46.068Z,720
2016-04-19T00:34:38.117Z,719.99
2016-04-19T00:35:21.351Z,720.01
2016-04-19T00:37:05.294Z,720.02
2016-04-19T00:37:19.012Z,719.91
2016-04-19T00:37:32.312Z,719.91
2016-04-19T00:37:45.609Z,720.11
2016-04-19T00:37:59.515Z,719.98
2016-04-19T00:38:12.875Z,720.01
2016-04-19T00:38:26.172Z,719.99
2016-04-19T00:38:53.627Z,720.07
2016-04-19T00:39:06.924Z,720.03
2016-04-19T00:39:34.381Z,720
2016-04-19T00:39:47.693Z,719.92
2016-04-19T00:40:00.990Z,720.02
2016-04-19T00:40:14.287Z,719.95
2016-04-19T00:40:30.834Z,719.96
2016-04-19T00:40:44.148Z,719.95
2016-04-19T00:40:57.289Z,719.95
2016-04-19T00:41:10.586Z,719.86
2016-04-19T00:41:23.898Z,719.89
2016-04-19T00:42:19.011Z,719.93
2016-04-19T00:42:32.311Z,719.83
2016-04-19T00:42:45.623Z,719.91
2016-04-19T00:42:58.920Z,719.91
2016-04-19T00:43:12.248Z,719.81
2016-04-19T00:43:25.545Z,719.81
2016-04-19T00:43:38.845Z,719.8
2016-04-19T00:43:52.142Z,719.85
2016-04-19T00:44:05.439Z,719.91
2016-04-19T00:44:18.736Z,719.92
2016-04-19T00:44:46.394Z,719.97
2016-04-19T00:44:59.691Z,720
2016-04-19T00:45:27.378Z,719.98
2016-04-19T00:45:40.897Z,719.99
2016-04-19T00:45:54.194Z,720.02
2016-04-19T00:46:07.506Z,719.94
2016-04-19T00:46:20.803Z,719.82
2016-04-19T00:46:34.102Z,719.96
2016-04-19T00:46:47.399Z,719.9
2016-04-19T00:47:00.696Z,719.93
2016-04-19T00:47:13.993Z,719.96
2016-04-19T00:47:27.321Z,719.89
2016-04-19T00:47:40.621Z,719.81
2016-04-19T00:47:53.917Z,719.91
2016-04-19T00:48:07.214Z,719.91
2016-04-19T00:48:20.511Z,719.87
2016-04-19T00:48:33.811Z,719.86
2016-04-19T00:48:47.124Z,719.88
2016-04-19T00:49:00.420Z,719.86
2016-04-19T00:49:13.717Z,719.89
2016-04-19T00:49:27.217Z,719.55
2016-04-19T00:49:40.533Z,719.87
2016-04-19T00:49:54.048Z,719.85
2016-04-19T00:50:07.361Z,719.92
2016-04-19T00:50:48.097Z,719.92
2016-04-19T00:51:01.394Z,719.77
2016-04-19T00:51:14.691Z,719.89
2016-04-19T00:51:27.972Z,719.81
2016-04-19T00:51:41.272Z,719.93
2016-04-19T00:51:54.585Z,719.92
2016-04-19T00:52:07.882Z,719.96
2016-04-19T00:52:21.163Z,719.98
2016-04-19T00:52:34.665Z,720.02
2016-04-19T00:52:48.165Z,719.94
2016-04-19T00:53:01.477Z,719.8
2016-04-19T00:53:14.774Z,719.89
2016-04-19T00:53:28.071Z,719.75
2016-04-19T00:53:41.199Z,719.97
2016-04-19T00:53:54.496Z,719.72
2016-04-19T00:54:07.996Z,719.9
2016-04-19T00:54:21.277Z,719.85
2016-04-19T00:54:35.185Z,719.97
2016-04-19T00:54:48.482Z,719.92
2016-04-19T00:55:01.764Z,719.85
2016-04-19T00:55:15.060Z,719.9
2016-04-19T00:55:28.576Z,719.76
2016-04-19T00:55:41.876Z,719.91
2016-04-19T00:55:55.173Z,719.95
2016-04-19T00:56:08.485Z,719.9
2016-04-19T00:56:21.798Z,719.95
2016-04-19T00:56:35.083Z,719.92
2016-04-19T00:56:48.380Z,719.95
2016-04-19T00:57:04.692Z,719.83
2016-04-19T00:57:18.005Z,719.92
2016-04-19T00:57:31.286Z,719.87
2016-04-19T00:57:44.569Z,719.87
2016-04-19T00:57:57.866Z,719.92
2016-04-19T00:58:11.163Z,719.88
2016-04-19T00:58:24.476Z,719.87
2016-04-19T00:58:37.776Z,719.91
2016-04-19T00:58:51.072Z,719.88
2016-04-19T00:59:04.385Z,719.84
2016-04-19T00:59:17.682Z,719.88
2016-04-19T00:59:30.979Z,719.76
2016-04-19T00:59:44.278Z,719.74
2016-04-19T00:59:57.574Z,719.92
2016-04-19T01:00:10.903Z,719.79
2016-04-19T01:00:24.731Z,719.9
2016-04-19T01:00:38.031Z,719.84
2016-04-19T01:00:51.327Z,719.93
2016-04-19T01:01:04.656Z,719.86
2016-04-19T01:01:18.140Z,719.81
2016-04-19T01:01:31.437Z,719.86
2016-04-19T01:01:44.737Z,719.75
2016-04-19T01:01:58.034Z,719.84
2016-04-19T01:02:11.330Z,719.85
2016-04-19T01:02:24.612Z,719.86
2016-04-19T01:02:37.927Z,719.88
2016-04-19T01:02:51.224Z,719.83
2016-04-19T01:03:04.521Z,719.75
2016-04-19T01:03:17.818Z,719.82
2016-04-19T01:03:31.099Z,719.9
2016-04-19T01:03:44.414Z,719.88
2016-04-19T01:03:57.914Z,719.94
2016-04-19T01:04:11.210Z,719.89
2016-04-19T01:04:24.710Z,719.9
2016-04-19T01:04:38.010Z,719.88
2016-04-19T01:04:51.307Z,719.82
2016-04-19T01:05:04.588Z,719.72
2016-04-19T01:05:18.088Z,720.04
2016-04-19T01:05:45.779Z,719.88
2016-04-19T01:05:59.076Z,719.81
2016-04-19T01:06:12.373Z,719.88
2016-04-19T01:06:25.670Z,719.87
2016-04-19T01:06:39.173Z,719.89
2016-04-19T01:06:52.485Z,719.87
2016-04-19T01:07:05.782Z,719.75
2016-04-19T01:07:19.063Z,720
2016-04-19T01:07:32.360Z,720.12
2016-04-19T01:07:48.690Z,720.07
2016-04-19T01:08:01.987Z,719.92
2016-04-19T01:08:15.128Z,719.95
2016-04-19T01:08:28.425Z,719.81
2016-04-19T01:08:41.724Z,719.95
2016-04-19T01:08:55.021Z,719.86
2016-04-19T01:09:08.334Z,719.84
2016-04-19T01:09:21.646Z,719.82
2016-04-19T01:09:34.945Z,719.87
2016-04-19T01:09:48.242Z,719.84
2016-04-19T01:10:01.523Z,719.83
2016-04-19T01:10:14.820Z,719.74
2016-04-19T01:10:42.308Z,719.88
2016-04-19T01:10:55.620Z,719.89
2016-04-19T01:11:08.917Z,719.85
2016-04-19T01:11:22.198Z,719.83
2016-04-19T01:11:35.498Z,719.86
2016-04-19T01:11:48.623Z,719.88
2016-04-19T01:12:01.920Z,719.91
2016-04-19T01:12:15.217Z,719.83
2016-04-19T01:12:28.498Z,719.91
2016-04-19T01:12:41.798Z,719.91
2016-04-19T01:12:55.110Z,719.86
2016-04-19T01:13:08.407Z,719.84
2016-04-19T01:13:21.689Z,719.81
2016-04-19T01:13:34.987Z,719.74
2016-04-19T01:13:48.284Z,719.85
2016-04-19T01:14:01.581Z,719.73
2016-04-19T01:14:14.862Z,719.81
2016-04-19T01:14:28.206Z,719.93
2016-04-19T01:14:41.537Z,719.9
2016-04-19T01:14:55.053Z,719.86
2016-04-19T01:15:08.334Z,719.85
2016-04-19T01:15:24.662Z,719.85
2016-04-19T01:15:38.150Z,719.84
2016-04-19T01:15:51.447Z,719.79
2016-04-19T01:16:04.743Z,719.82
2016-04-19T01:16:18.056Z,719.87
2016-04-19T01:16:31.368Z,719.96
2016-04-19T01:16:44.683Z,719.89
2016-04-19T01:16:58.183Z,719.92
2016-04-19T01:17:11.667Z,719.93
2016-04-19T01:17:25.152Z,719.91
2016-04-19T01:17:38.452Z,719.89
2016-04-19T01:17:51.780Z,719.92
2016-04-19T01:18:05.280Z,719.84
2016-04-19T01:18:18.592Z,719.88
2016-04-19T01:18:31.905Z,719.75
2016-04-19T01:18:45.611Z,719.88
2016-04-19T01:18:58.908Z,719.84
2016-04-19T01:19:26.361Z,719.91
2016-04-19T01:19:39.660Z,719.89
2016-04-19T01:20:07.128Z,719.9
2016-04-19T01:20:20.425Z,719.86
2016-04-19T01:20:33.756Z,719.92
2016-04-19T01:20:47.444Z,719.92
2016-04-19T01:21:00.725Z,719.94
2016-04-19T01:21:14.022Z,719.94
2016-04-19T01:21:27.335Z,719.85
2016-04-19T01:21:40.634Z,719.9
2016-04-19T01:21:53.916Z,719.85
2016-04-19T01:22:07.416Z,719.95
2016-04-19T01:22:20.728Z,719.96
2016-04-19T01:22:34.027Z,719.88
2016-04-19T01:22:47.324Z,719.96
2016-04-19T01:23:00.605Z,719.99
2016-04-19T01:23:28.261Z,719.97
2016-04-19T01:23:41.561Z,719.99
2016-04-19T01:23:54.889Z,719.99
2016-04-19T01:24:08.171Z,719.97
2016-04-19T01:24:21.671Z,719.99
2016-04-19T01:24:35.174Z,719.96
2016-04-19T01:25:02.830Z,720.02
2016-04-19T01:25:16.142Z,720.04
2016-04-19T01:25:29.439Z,719.99
2016-04-19T01:25:42.941Z,720.05
2016-04-19T01:25:56.238Z,720.05
2016-04-19T01:26:09.551Z,720
2016-04-19T01:26:23.035Z,719.99
2016-04-19T01:26:36.335Z,720
2016-04-19T01:26:49.819Z,719.99
2016-04-19T01:27:03.101Z,719.99
2016-04-19T01:27:16.413Z,719.92
2016-04-19T01:27:29.710Z,719.92
2016-04-19T01:27:42.994Z,719.93
2016-04-19T01:27:56.291Z,719.96
2016-04-19T01:28:09.619Z,719.94
2016-04-19T01:28:22.916Z,719.92
2016-04-19T01:28:36.216Z,719.98
2016-04-19T01:29:03.669Z,719.84
2016-04-19T01:29:17.153Z,719.88
2016-04-19T01:29:30.435Z,719.97
2016-04-19T01:29:43.734Z,719.97
2016-04-19T01:30:00.030Z,720.07
2016-04-19T01:30:13.312Z,719.94
2016-04-19T01:30:40.783Z,719.98
2016-04-19T01:31:08.252Z,719.98
2016-04-19T01:31:21.752Z,720
2016-04-19T01:31:35.035Z,720.01
2016-04-19T01:31:48.332Z,720.02
2016-04-19T01:32:01.629Z,719.98
2016-04-19T01:32:28.926Z,719.99
2016-04-19T01:32:42.242Z,719.99
2016-04-19T01:32:55.538Z,719.98
2016-04-19T01:33:09.023Z,719.97
2016-04-19T01:33:49.760Z,719.93
2016-04-19T01:34:03.073Z,719.96
2016-04-19T01:34:16.385Z,719.97
2016-04-19T01:34:30.104Z,719.96
2016-04-19T01:34:43.388Z,719.99
2016-04-19T01:34:56.685Z,719.98
2016-04-19T01:35:09.998Z,719.97
2016-04-19T01:35:23.294Z,719.94
2016-04-19T01:35:36.609Z,720
2016-04-19T01:35:49.875Z,719.98
2016-04-19T01:36:03.375Z,719.97
2016-04-19T01:36:16.671Z,719.95
2016-04-19T01:36:30.171Z,719.97
2016-04-19T01:36:43.674Z,719.98
2016-04-19T01:36:57.003Z,719.91
2016-04-19T01:37:10.299Z,719.89
2016-04-19T01:37:24.174Z,719.93
2016-04-19T01:37:51.864Z,719.94
2016-04-19T01:38:05.176Z,719.94
2016-04-19T01:38:18.505Z,719.97
2016-04-19T01:38:31.817Z,719.94
2016-04-19T01:38:45.102Z,719.94
2016-04-19T01:38:58.399Z,719.93
2016-04-19T01:39:11.727Z,719.9
2016-04-19T01:39:25.024Z,719.99
2016-04-19T01:39:38.729Z,719.99
2016-04-19T01:40:06.182Z,719.96
2016-04-19T01:40:33.839Z,719.93
2016-04-19T01:40:47.592Z,719.96
2016-04-19T01:41:00.904Z,719.97
2016-04-19T01:41:14.201Z,720.01
2016-04-19T01:41:27.685Z,720
2016-04-19T01:41:40.969Z,719.99
2016-04-19T01:42:22.125Z,719.97
2016-04-19T01:42:35.612Z,719.99
2016-04-19T01:42:48.753Z,719.98
2016-04-19T01:43:02.065Z,720.03
2016-04-19T01:43:15.362Z,719.96
2016-04-19T01:43:31.675Z,720
2016-04-19T01:43:45.162Z,719.98
2016-04-19T01:43:58.459Z,720.02
2016-04-19T01:44:11.975Z,720.02
2016-04-19T01:44:25.256Z,719.98
2016-04-19T01:44:38.774Z,719.97
2016-04-19T01:44:52.070Z,720
2016-04-19T01:45:05.383Z,720
2016-04-19T01:45:18.992Z,719.97
2016-04-19T01:45:32.289Z,719.96
2016-04-19T01:45:59.730Z,720.01
2016-04-19T01:46:13.230Z,719.96
2016-04-19T01:46:26.730Z,719.99
2016-04-19T01:46:40.030Z,720.01
2016-04-19T01:46:53.342Z,719.95
2016-04-19T01:47:20.795Z,720.01
2016-04-19T01:47:48.251Z,719.97
2016-04-19T01:48:01.751Z,719.96
2016-04-19T01:48:15.048Z,720
2016-04-19T01:48:28.329Z,720.03
2016-04-19T01:48:41.628Z,719.98
2016-04-19T01:48:54.956Z,720.04
2016-04-19T01:49:08.456Z,720.05
2016-04-19T01:49:21.738Z,719.99
2016-04-19T01:49:35.050Z,720.03
2016-04-19T01:49:48.350Z,720.05
2016-04-19T01:50:01.647Z,720.09
2016-04-19T01:50:14.944Z,720.11
2016-04-19T01:50:31.663Z,720.02
2016-04-19T01:50:44.946Z,720.02
2016-04-19T01:50:58.243Z,720.08
2016-04-19T01:51:11.540Z,720.06
2016-04-19T01:51:24.899Z,720.01
2016-04-19T01:51:38.184Z,720.07
2016-04-19T01:51:51.497Z,720.04
2016-04-19T01:52:05.012Z,720.01
2016-04-19T01:52:18.309Z,720.03
2016-04-19T01:53:13.248Z,720.03
2016-04-19T01:53:26.529Z,720.04
2016-04-19T01:53:39.688Z,720.02
2016-04-19T01:53:53.001Z,720.01
2016-04-19T01:54:06.298Z,720.01
2016-04-19T01:54:19.594Z,720.06
2016-04-19T01:54:33.110Z,720.09
2016-04-19T01:54:46.427Z,720.1
2016-04-19T01:54:59.723Z,720.1
2016-04-19T01:55:13.020Z,720.14
2016-04-19T01:55:26.364Z,720.1
2016-04-19T01:55:39.647Z,720.07
2016-04-19T01:55:52.944Z,720.11
2016-04-19T01:56:06.241Z,720.1
2016-04-19T01:56:19.725Z,720.11
2016-04-19T01:56:33.022Z,720.13
2016-04-19T01:56:46.338Z,720.08
2016-04-19T01:56:59.635Z,720.05
2016-04-19T01:57:12.932Z,720.03
2016-04-19T01:57:26.228Z,720.11
2016-04-19T01:57:39.730Z,720.12
2016-04-19T01:57:56.262Z,720.04
2016-04-19T01:58:09.574Z,720.11
2016-04-19T01:58:22.746Z,720.06
2016-04-19T01:58:36.246Z,720
2016-04-19T01:58:49.546Z,720.06
2016-04-19T01:59:02.858Z,720.06
2016-04-19T01:59:16.171Z,720.09
2016-04-19T01:59:29.483Z,720.08
2016-04-19T01:59:42.782Z,720.1
2016-04-19T01:59:56.095Z,720.08
2016-04-19T02:00:09.392Z,720.06
2016-04-19T02:00:22.720Z,719.99
2016-04-19T02:00:39.067Z,720.05
2016-04-19T02:00:52.363Z,720.05
2016-04-19T02:01:05.660Z,719.97
2016-04-19T02:01:18.957Z,720
2016-04-19T02:01:32.254Z,720.03
2016-04-19T02:02:27.351Z,720.01
2016-04-19T02:02:40.651Z,720.01
2016-04-19T02:02:53.948Z,720.07
2016-04-19T02:03:07.244Z,720.08
2016-04-19T02:03:20.541Z,720.04
2016-04-19T02:03:33.854Z,720.02
2016-04-19T02:03:47.168Z,719.97
2016-04-19T02:04:00.465Z,720.01
2016-04-19T02:04:13.778Z,719.97
2016-04-19T02:04:27.059Z,720.01
2016-04-19T02:04:40.374Z,719.99
2016-04-19T02:04:54.265Z,720.06
2016-04-19T02:05:07.562Z,720.04
2016-04-19T02:05:20.859Z,720.04
2016-04-19T02:05:34.578Z,720.03
2016-04-19T02:06:02.034Z,720.05
2016-04-19T02:06:15.331Z,720.05
2016-04-19T02:06:28.612Z,720.04
2016-04-19T02:06:41.943Z,720.05
2016-04-19T02:06:55.240Z,720.05
2016-04-19T02:07:08.537Z,720.07
2016-04-19T02:07:21.834Z,720.12
2016-04-19T02:07:35.162Z,720.05
2016-04-19T02:07:48.445Z,720.04
2016-04-19T02:08:01.961Z,720.11
2016-04-19T02:08:15.257Z,720.05
2016-04-19T02:08:28.554Z,720.13
2016-04-19T02:08:42.104Z,720.09
2016-04-19T02:08:55.417Z,720.07
2016-04-19T02:09:08.714Z,720.11
2016-04-19T02:09:22.010Z,720.06
2016-04-19T02:09:35.307Z,720.12
2016-04-19T02:09:48.607Z,720.09
2016-04-19T02:10:01.920Z,720.11
2016-04-19T02:10:15.201Z,720.1
2016-04-19T02:10:28.545Z,720.12
2016-04-19T02:10:41.845Z,720.03
2016-04-19T02:10:55.141Z,720.09
2016-04-19T02:11:08.454Z,720.05
2016-04-19T02:11:21.782Z,720.02
2016-04-19T02:11:35.095Z,720.08
2016-04-19T02:11:48.425Z,720.02
2016-04-19T02:12:01.722Z,720.04
2016-04-19T02:12:15.206Z,720.07
2016-04-19T02:12:28.503Z,720.04
2016-04-19T02:12:41.803Z,720.07
2016-04-19T02:12:55.318Z,720.04
2016-04-19T02:13:08.443Z,720
2016-04-19T02:13:21.740Z,720.01
2016-04-19T02:13:35.037Z,720
2016-04-19T02:13:48.320Z,720.01
2016-04-19T02:14:01.617Z,720.04
2016-04-19T02:14:17.930Z,720.02
2016-04-19T02:14:31.211Z,720.04
2016-04-19T02:14:44.526Z,719.99
2016-04-19T02:14:57.808Z,719.98
2016-04-19T02:15:11.120Z,720.03
2016-04-19T02:15:38.591Z,720.04
2016-04-19T02:15:51.872Z,720.04
2016-04-19T02:16:05.169Z,720.05
2016-04-19T02:16:18.482Z,720.09
2016-04-19T02:16:31.778Z,720.06
2016-04-19T02:16:45.078Z,720.02
2016-04-19T02:16:58.375Z,720.06
2016-04-19T02:17:11.688Z,720.07
2016-04-19T02:17:24.969Z,720.09
2016-04-19T02:17:38.284Z,720.05
2016-04-19T02:17:51.581Z,720.07
2016-04-19T02:18:05.081Z,720.07
2016-04-19T02:18:18.378Z,720.05
2016-04-19T02:18:31.675Z,720.08
2016-04-19T02:18:45.006Z,720.05
2016-04-19T02:18:58.303Z,720.07
2016-04-19T02:19:11.600Z,720.05
2016-04-19T02:19:24.897Z,720.01
2016-04-19T02:19:38.196Z,720.08
2016-04-19T02:19:51.524Z,720.05
2016-04-19T02:20:04.836Z,720.06
2016-04-19T02:20:18.133Z,720.07
2016-04-19T02:20:31.899Z,720.07
2016-04-19T02:20:45.183Z,720.03
2016-04-19T02:21:01.496Z,720.04
2016-04-19T02:21:14.792Z,720.06
2016-04-19T02:21:28.089Z,720.03
2016-04-19T02:21:41.389Z,720.02
2016-04-19T02:21:54.905Z,720.02
2016-04-19T02:22:08.045Z,720.05
2016-04-19T02:22:21.374Z,720.07
2016-04-19T02:22:34.670Z,720.05
2016-04-19T02:22:47.986Z,720.03
2016-04-19T02:23:01.486Z,720.03
2016-04-19T02:23:14.783Z,720.05
2016-04-19T02:23:28.080Z,720.07
2016-04-19T02:23:41.597Z,720.06
2016-04-19T02:23:55.097Z,720.06
2016-04-19T02:24:08.410Z,720.03
2016-04-19T02:24:21.722Z,720.03
2016-04-19T02:24:35.019Z,720.03
2016-04-19T02:24:48.319Z,720.05
2016-04-19T02:25:01.632Z,720.11
2016-04-19T02:25:14.960Z,720.1
2016-04-19T02:25:28.257Z,720.05
2016-04-19T02:25:41.556Z,720.08
2016-04-19T02:25:54.869Z,720.07
2016-04-19T02:26:08.150Z,720.07
2016-04-19T02:26:21.463Z,720.1
2016-04-19T02:26:34.791Z,720.1
2016-04-19T02:26:48.090Z,720.12
2016-04-19T02:27:01.387Z,720.05
2016-04-19T02:27:14.668Z,720.07
2016-04-19T02:27:27.965Z,720.09
2016-04-19T02:27:41.280Z,720.03
2016-04-19T02:27:54.593Z,720.08
2016-04-19T02:28:07.749Z,720.1
2016-04-19T02:28:21.233Z,720.08
2016-04-19T02:28:34.530Z,720.06
2016-04-19T02:28:47.830Z,720.1
2016-04-19T02:29:01.127Z,720.06
2016-04-19T02:29:14.408Z,720.07
2016-04-19T02:29:27.721Z,720.05
2016-04-19T02:29:41.021Z,720.06
2016-04-19T02:29:54.317Z,720.06
2016-04-19T02:30:07.630Z,720.08
2016-04-19T02:30:20.927Z,720.08
2016-04-19T02:30:34.239Z,720.09
2016-04-19T02:30:47.539Z,720.05
2016-04-19T02:31:00.852Z,720.11
2016-04-19T02:31:14.164Z,720.08
2016-04-19T02:31:27.445Z,720.06
2016-04-19T02:31:40.744Z,720.04
2016-04-19T02:31:54.057Z,720.08
2016-04-19T02:32:07.354Z,720.06
2016-04-19T02:32:20.651Z,720.09
2016-04-19T02:32:34.166Z,720.05
2016-04-19T02:32:47.466Z,720.06
2016-04-19T02:33:01.185Z,720.12
2016-04-19T02:33:14.466Z,720.02
2016-04-19T02:33:27.966Z,720.05
2016-04-19T02:33:41.466Z,720
2016-04-19T02:33:54.828Z,720.02
2016-04-19T02:34:08.125Z,720.07
2016-04-19T02:34:21.422Z,720.05
2016-04-19T02:34:34.719Z,720.04
2016-04-19T02:34:48.034Z,720.07
2016-04-19T02:35:01.330Z,720.01
2016-04-19T02:35:14.627Z,720.04
2016-04-19T02:35:28.190Z,719.97
2016-04-19T02:35:55.646Z,720.04
2016-04-19T02:36:08.958Z,719.95
2016-04-19T02:36:22.255Z,719.96
2016-04-19T02:36:35.537Z,719.91
2016-04-19T02:36:48.836Z,719.96
2016-04-19T02:37:02.165Z,719.94
2016-04-19T02:37:15.665Z,719.98
2016-04-19T02:37:29.149Z,719.98
2016-04-19T02:37:42.461Z,719.97
2016-04-19T02:38:09.918Z,720.04
2016-04-19T02:38:23.230Z,719.93
2016-04-19T02:38:36.527Z,719.95
2016-04-19T02:38:49.826Z,719.96
2016-04-19T02:39:03.123Z,719.95
2016-04-19T02:39:16.451Z,720
2016-04-19T02:39:29.748Z,720.03
2016-04-19T02:39:43.060Z,719.99
2016-04-19T02:39:56.360Z,720.08
2016-04-19T02:40:09.657Z,720.06
2016-04-19T02:40:22.969Z,720.07
2016-04-19T02:40:36.313Z,720.05
2016-04-19T02:40:49.596Z,720.07
2016-04-19T02:41:02.909Z,720.05
2016-04-19T02:41:16.237Z,720.08
2016-04-19T02:41:29.518Z,720.07
2016-04-19T02:41:42.815Z,720.09
2016-04-19T02:41:56.115Z,720.06
2016-04-19T02:42:09.428Z,720.09
2016-04-19T02:42:22.756Z,720.1
2016-04-19T02:42:36.256Z,720.09
2016-04-19T02:42:49.539Z,720.07
2016-04-19T02:43:02.851Z,720.01
2016-04-19T02:43:16.398Z,720.07
2016-04-19T02:43:29.695Z,720.09
2016-04-19T02:43:42.992Z,720.05
2016-04-19T02:43:56.292Z,720.11
2016-04-19T02:44:09.651Z,720.05
2016-04-19T02:44:22.979Z,720.07
2016-04-19T02:44:36.276Z,720.1
2016-04-19T02:44:49.576Z,720.06
2016-04-19T02:45:02.873Z,720.07
2016-04-19T02:45:16.201Z,720.11
2016-04-19T02:45:29.514Z,720.05
2016-04-19T02:45:42.811Z,720.1
2016-04-19T02:45:56.110Z,720.05
2016-04-19T02:46:09.423Z,720.11
2016-04-19T02:46:22.735Z,720.09
2016-04-19T02:46:36.017Z,720.13
2016-04-19T02:46:49.332Z,720.12
2016-04-19T02:47:02.645Z,720.06
2016-04-19T02:47:15.973Z,720.12
2016-04-19T02:47:29.473Z,720.1
2016-04-19T02:47:42.770Z,720.2
2016-04-19T02:47:56.070Z,720.07
2016-04-19T02:48:09.382Z,720.1
2016-04-19T02:48:22.710Z,720.13
2016-04-19T02:48:36.007Z,720.11
2016-04-19T02:48:49.306Z,720.12
2016-04-19T02:49:02.822Z,720.09
2016-04-19T02:49:16.118Z,720.13
2016-04-19T02:49:29.415Z,720.09
2016-04-19T02:49:42.697Z,720.12
2016-04-19T02:49:56.012Z,720.15
2016-04-19T02:50:09.325Z,720.11
2016-04-19T02:50:25.793Z,720.09
2016-04-19T02:50:39.090Z,720.11
2016-04-19T02:50:52.389Z,720.14
2016-04-19T02:51:05.717Z,720.13
2016-04-19T02:51:19.014Z,720.1
2016-04-19T02:51:32.311Z,720.09
2016-04-19T02:51:45.623Z,720.12
2016-04-19T02:51:58.923Z,720.15
2016-04-19T02:52:12.220Z,720.16
2016-04-19T02:52:25.501Z,720.13
2016-04-19T02:52:38.798Z,720.11
2016-04-19T02:52:52.098Z,720.16
2016-04-19T02:53:05.426Z,720.13
2016-04-19T02:53:18.708Z,720.13
2016-04-19T02:53:32.004Z,720.08
2016-04-19T02:53:45.333Z,720.05
2016-04-19T02:54:12.803Z,720.05
2016-04-19T02:54:25.960Z,720.09
2016-04-19T02:54:39.272Z,720.1
2016-04-19T02:54:52.634Z,720.09
2016-04-19T02:55:05.931Z,720.13
2016-04-19T02:55:19.244Z,720.08
2016-04-19T02:55:32.541Z,720.05
2016-04-19T02:55:45.853Z,720.12
2016-04-19T02:55:59.152Z,720.11
2016-04-19T02:56:12.465Z,720.16
2016-04-19T02:56:25.777Z,720.19
2016-04-19T02:56:39.074Z,720.05
2016-04-19T02:56:52.358Z,720.18
2016-04-19T02:57:05.686Z,720.19
2016-04-19T02:57:18.983Z,720.17
2016-04-19T02:57:32.296Z,720.2
2016-04-19T02:57:45.608Z,720.11
2016-04-19T02:57:58.908Z,720.09
2016-04-19T02:58:12.236Z,720.14
2016-04-19T02:58:25.549Z,720.17
2016-04-19T02:58:38.846Z,720.17
2016-04-19T02:58:52.145Z,720.19
2016-04-19T02:59:05.442Z,720.15
2016-04-19T02:59:18.755Z,720.12
2016-04-19T02:59:32.052Z,720.2
2016-04-19T02:59:45.364Z,720.14
2016-04-19T02:59:58.648Z,720.22
2016-04-19T03:00:11.961Z,720.15
2016-04-19T03:00:39.461Z,720.13
2016-04-19T03:00:52.744Z,720.2
2016-04-19T03:01:20.197Z,720.15
2016-04-19T03:01:33.510Z,720.16